sensor_id;sensor_type;location;lat;lon;timestamp;temperature;humidity
5278;DHT22;2662;51.194;6.614;2023-08-24T00:01:57;20.10;99.90
5278;DHT22;2662;51.194;6.614;2023-08-24T00:04:24;20.10;99.90
5278;DHT22;2662;51.194;6.614;2023-08-24T00:06:51;20.00;99.90
5278;DHT22;2662;51.194;6.614;2023-08-24T00:09:18;20.00;99.90
5278;DHT22;2662;51.194;6.614;2023-08-24T00:11:44;20.00;99.90
5278;DHT22;2662;51.194;6.614;2023-08-24T00:14:11;19.90;99.90
5278;DHT22;2662;51.194;6.614;2023-08-24T00:16:38;19.90;99.90
5278;DHT22;2662;51.194;6.614;2023-08-24T00:19:07;19.90;99.90
5278;DHT22;2662;51.194;6.614;2023-08-24T00:21:34;19.80;99.90
5278;DHT22;2662;51.194;6.614;2023-08-24T00:24:01;19.80;99.90
5278;DHT22;2662;51.194;6.614;2023-08-24T00:26:27;19.80;99.90
5278;DHT22;2662;51.194;6.614;2023-08-24T00:28:54;19.80;99.90
5278;DHT22;2662;51.194;6.614;2023-08-24T00:31:21;19.70;99.90
5278;DHT22;2662;51.194;6.614;2023-08-24T00:33:48;19.70;99.90
5278;DHT22;2662;51.194;6.614;2023-08-24T00:36:17;19.70;99.90
5278;DHT22;2662;51.194;6.614;2023-08-24T00:38:44;19.70;99.90
5278;DHT22;2662;51.194;6.614;2023-08-24T00:41:16;19.60;99.90
5278;DHT22;2662;51.194;6.614;2023-08-24T00:43:43;19.60;99.90
5278;DHT22;2662;51.194;6.614;2023-08-24T00:46:10;19.60;99.90
5278;DHT22;2662;51.194;6.614;2023-08-24T00:48:36;19.60;99.90
5278;DHT22;2662;51.194;6.614;2023-08-24T00:51:04;19.50;99.90
5278;DHT22;2662;51.194;6.614;2023-08-24T00:53:32;19.60;99.90
5278;DHT22;2662;51.194;6.614;2023-08-24T00:56:00;19.60;99.90
5278;DHT22;2662;51.194;6.614;2023-08-24T00:58:27;19.50;99.90
5278;DHT22;2662;51.194;6.614;2023-08-24T01:00:55;19.50;99.90
5278;DHT22;2662;51.194;6.614;2023-08-24T01:03:23;19.40;99.90
5278;DHT22;2662;51.194;6.614;2023-08-24T01:05:51;19.40;99.90
5278;DHT22;2662;51.194;6.614;2023-08-24T01:08:18;19.40;99.90
5278;DHT22;2662;51.194;6.614;2023-08-24T01:10:50;19.30;99.90
5278;DHT22;2662;51.194;6.614;2023-08-24T01:13:23;19.30;99.90
5278;DHT22;2662;51.194;6.614;2023-08-24T01:15:58;19.20;99.90
5278;DHT22;2662;51.194;6.614;2023-08-24T01:18:28;19.20;99.90
5278;DHT22;2662;51.194;6.614;2023-08-24T01:20:56;19.20;99.90
5278;DHT22;2662;51.194;6.614;2023-08-24T01:23:33;19.20;99.90
5278;DHT22;2662;51.194;6.614;2023-08-24T01:26:10;19.10;99.90
5278;DHT22;2662;51.194;6.614;2023-08-24T01:28:37;19.10;99.90
5278;DHT22;2662;51.194;6.614;2023-08-24T01:31:43;19.10;99.90
5278;DHT22;2662;51.194;6.614;2023-08-24T01:34:10;19.20;99.90
5278;DHT22;2662;51.194;6.614;2023-08-24T01:36:37;19.10;99.90
5278;DHT22;2662;51.194;6.614;2023-08-24T01:39:11;19.20;99.90
5278;DHT22;2662;51.194;6.614;2023-08-24T01:41:41;19.20;99.90
5278;DHT22;2662;51.194;6.614;2023-08-24T01:44:09;19.20;99.90
5278;DHT22;2662;51.194;6.614;2023-08-24T01:46:39;19.20;99.90
5278;DHT22;2662;51.194;6.614;2023-08-24T01:49:07;19.20;99.90
5278;DHT22;2662;51.194;6.614;2023-08-24T01:51:34;19.20;99.90
5278;DHT22;2662;51.194;6.614;2023-08-24T01:54:02;19.20;99.90
5278;DHT22;2662;51.194;6.614;2023-08-24T01:56:29;19.20;99.90
5278;DHT22;2662;51.194;6.614;2023-08-24T01:58:57;19.20;99.90
5278;DHT22;2662;51.194;6.614;2023-08-24T02:01:23;19.20;99.90
5278;DHT22;2662;51.194;6.614;2023-08-24T02:03:50;19.10;99.90
5278;DHT22;2662;51.194;6.614;2023-08-24T02:06:18;19.10;99.90
5278;DHT22;2662;51.194;6.614;2023-08-24T02:08:44;19.00;99.90
5278;DHT22;2662;51.194;6.614;2023-08-24T02:11:11;18.90;99.90
5278;DHT22;2662;51.194;6.614;2023-08-24T02:13:38;18.80;99.90
5278;DHT22;2662;51.194;6.614;2023-08-24T02:16:08;18.70;99.90
5278;DHT22;2662;51.194;6.614;2023-08-24T02:18:35;18.60;99.90
5278;DHT22;2662;51.194;6.614;2023-08-24T02:21:07;18.60;99.90
5278;DHT22;2662;51.194;6.614;2023-08-24T02:23:34;18.50;99.90
5278;DHT22;2662;51.194;6.614;2023-08-24T02:26:00;18.50;99.90
5278;DHT22;2662;51.194;6.614;2023-08-24T02:28:28;18.50;99.90
5278;DHT22;2662;51.194;6.614;2023-08-24T02:30:54;18.50;99.90
5278;DHT22;2662;51.194;6.614;2023-08-24T02:33:23;18.50;99.90
5278;DHT22;2662;51.194;6.614;2023-08-24T02:35:50;18.50;99.90
5278;DHT22;2662;51.194;6.614;2023-08-24T02:38:17;18.60;99.90
5278;DHT22;2662;51.194;6.614;2023-08-24T02:40:44;18.60;99.90
5278;DHT22;2662;51.194;6.614;2023-08-24T02:43:10;18.70;99.90
5278;DHT22;2662;51.194;6.614;2023-08-24T02:45:37;18.80;99.90
5278;DHT22;2662;51.194;6.614;2023-08-24T02:48:05;18.90;99.90
5278;DHT22;2662;51.194;6.614;2023-08-24T02:50:33;19.00;99.90
5278;DHT22;2662;51.194;6.614;2023-08-24T02:52:59;19.10;99.90
5278;DHT22;2662;51.194;6.614;2023-08-24T02:55:27;19.10;99.90
5278;DHT22;2662;51.194;6.614;2023-08-24T02:57:54;19.20;99.90
5278;DHT22;2662;51.194;6.614;2023-08-24T03:00:21;19.10;99.90
5278;DHT22;2662;51.194;6.614;2023-08-24T03:02:47;19.20;99.90
5278;DHT22;2662;51.194;6.614;2023-08-24T03:05:14;19.20;99.90
5278;DHT22;2662;51.194;6.614;2023-08-24T03:07:42;19.20;99.90
5278;DHT22;2662;51.194;6.614;2023-08-24T03:10:10;19.30;99.90
5278;DHT22;2662;51.194;6.614;2023-08-24T03:12:36;19.30;99.90
5278;DHT22;2662;51.194;6.614;2023-08-24T03:15:04;19.40;99.90
5278;DHT22;2662;51.194;6.614;2023-08-24T03:17:31;19.50;99.90
5278;DHT22;2662;51.194;6.614;2023-08-24T03:19:57;19.60;99.90
5278;DHT22;2662;51.194;6.614;2023-08-24T03:22:24;19.70;99.90
5278;DHT22;2662;51.194;6.614;2023-08-24T03:24:52;19.70;99.90
5278;DHT22;2662;51.194;6.614;2023-08-24T03:27:19;19.80;99.90
5278;DHT22;2662;51.194;6.614;2023-08-24T03:29:46;19.80;99.90
5278;DHT22;2662;51.194;6.614;2023-08-24T03:32:13;19.80;99.90
5278;DHT22;2662;51.194;6.614;2023-08-24T03:34:39;19.90;99.90
5278;DHT22;2662;51.194;6.614;2023-08-24T03:37:06;20.00;99.90
5278;DHT22;2662;51.194;6.614;2023-08-24T03:39:33;20.00;99.90
5278;DHT22;2662;51.194;6.614;2023-08-24T03:42:01;20.10;99.90
5278;DHT22;2662;51.194;6.614;2023-08-24T03:44:28;20.20;99.90
5278;DHT22;2662;51.194;6.614;2023-08-24T03:46:55;20.20;99.90
5278;DHT22;2662;51.194;6.614;2023-08-24T03:49:22;20.30;99.90
5278;DHT22;2662;51.194;6.614;2023-08-24T03:51:48;20.20;99.90
5278;DHT22;2662;51.194;6.614;2023-08-24T03:54:15;20.30;99.90
5278;DHT22;2662;51.194;6.614;2023-08-24T03:56:42;20.30;99.90
5278;DHT22;2662;51.194;6.614;2023-08-24T03:59:10;20.20;99.90
5278;DHT22;2662;51.194;6.614;2023-08-24T04:01:37;20.10;99.90
5278;DHT22;2662;51.194;6.614;2023-08-24T04:04:04;20.10;99.90
5278;DHT22;2662;51.194;6.614;2023-08-24T04:06:31;20.00;99.90
5278;DHT22;2662;51.194;6.614;2023-08-24T04:08:58;19.90;99.90
5278;DHT22;2662;51.194;6.614;2023-08-24T04:11:25;19.80;99.90
5278;DHT22;2662;51.194;6.614;2023-08-24T04:13:51;19.70;99.90
5278;DHT22;2662;51.194;6.614;2023-08-24T04:16:19;19.60;99.90
5278;DHT22;2662;51.194;6.614;2023-08-24T04:18:46;19.60;99.90
5278;DHT22;2662;51.194;6.614;2023-08-24T04:21:13;19.50;99.90
5278;DHT22;2662;51.194;6.614;2023-08-24T04:23:39;19.40;99.90
5278;DHT22;2662;51.194;6.614;2023-08-24T04:26:10;19.30;99.90
5278;DHT22;2662;51.194;6.614;2023-08-24T04:28:37;19.30;99.90
5278;DHT22;2662;51.194;6.614;2023-08-24T04:31:04;19.20;99.90
5278;DHT22;2662;51.194;6.614;2023-08-24T04:33:32;19.20;99.90
5278;DHT22;2662;51.194;6.614;2023-08-24T04:35:59;19.10;99.90
5278;DHT22;2662;51.194;6.614;2023-08-24T04:38:25;19.10;99.90
5278;DHT22;2662;51.194;6.614;2023-08-24T04:40:54;19.10;99.90
5278;DHT22;2662;51.194;6.614;2023-08-24T04:43:23;19.10;99.90
5278;DHT22;2662;51.194;6.614;2023-08-24T04:45:51;19.10;99.90
5278;DHT22;2662;51.194;6.614;2023-08-24T04:48:18;19.10;99.90
5278;DHT22;2662;51.194;6.614;2023-08-24T04:50:46;19.10;99.90
5278;DHT22;2662;51.194;6.614;2023-08-24T04:53:16;19.10;99.90
5278;DHT22;2662;51.194;6.614;2023-08-24T04:55:43;19.00;99.90
5278;DHT22;2662;51.194;6.614;2023-08-24T04:58:10;18.90;99.90
5278;DHT22;2662;51.194;6.614;2023-08-24T05:00:37;18.80;99.90
5278;DHT22;2662;51.194;6.614;2023-08-24T05:03:05;18.80;99.90
5278;DHT22;2662;51.194;6.614;2023-08-24T05:05:33;18.90;99.90
5278;DHT22;2662;51.194;6.614;2023-08-24T05:08:03;18.90;99.90
5278;DHT22;2662;51.194;6.614;2023-08-24T05:10:32;18.90;99.90
5278;DHT22;2662;51.194;6.614;2023-08-24T05:12:59;18.90;99.90
5278;DHT22;2662;51.194;6.614;2023-08-24T05:15:26;19.00;99.90
5278;DHT22;2662;51.194;6.614;2023-08-24T05:17:53;19.00;99.90
5278;DHT22;2662;51.194;6.614;2023-08-24T05:20:21;19.00;99.90
5278;DHT22;2662;51.194;6.614;2023-08-24T05:22:48;19.00;99.90
5278;DHT22;2662;51.194;6.614;2023-08-24T05:25:16;19.00;99.90
5278;DHT22;2662;51.194;6.614;2023-08-24T05:27:43;19.00;99.90
5278;DHT22;2662;51.194;6.614;2023-08-24T05:30:11;18.90;99.90
5278;DHT22;2662;51.194;6.614;2023-08-24T05:32:38;18.90;99.90
5278;DHT22;2662;51.194;6.614;2023-08-24T05:35:05;18.90;99.90
5278;DHT22;2662;51.194;6.614;2023-08-24T05:37:32;19.00;99.90
5278;DHT22;2662;51.194;6.614;2023-08-24T05:39:59;19.10;99.90
5278;DHT22;2662;51.194;6.614;2023-08-24T05:42:27;19.10;99.90
5278;DHT22;2662;51.194;6.614;2023-08-24T05:44:54;19.10;99.90
5278;DHT22;2662;51.194;6.614;2023-08-24T05:47:21;19.20;99.90
5278;DHT22;2662;51.194;6.614;2023-08-24T05:49:48;19.30;99.90
5278;DHT22;2662;51.194;6.614;2023-08-24T05:52:15;19.30;99.90
5278;DHT22;2662;51.194;6.614;2023-08-24T05:54:41;19.30;99.90
5278;DHT22;2662;51.194;6.614;2023-08-24T05:57:08;19.40;99.90
5278;DHT22;2662;51.194;6.614;2023-08-24T05:59:36;19.40;99.90
5278;DHT22;2662;51.194;6.614;2023-08-24T06:02:03;19.50;99.90
5278;DHT22;2662;51.194;6.614;2023-08-24T06:04:30;19.70;99.90
5278;DHT22;2662;51.194;6.614;2023-08-24T06:06:57;19.80;99.90
5278;DHT22;2662;51.194;6.614;2023-08-24T06:09:24;19.80;99.90
5278;DHT22;2662;51.194;6.614;2023-08-24T06:11:51;19.90;99.90
5278;DHT22;2662;51.194;6.614;2023-08-24T06:14:18;20.00;99.90
5278;DHT22;2662;51.194;6.614;2023-08-24T06:16:46;20.20;99.90
5278;DHT22;2662;51.194;6.614;2023-08-24T06:19:14;20.40;99.90
5278;DHT22;2662;51.194;6.614;2023-08-24T06:21:41;20.60;99.90
5278;DHT22;2662;51.194;6.614;2023-08-24T06:24:07;20.90;99.90
5278;DHT22;2662;51.194;6.614;2023-08-24T06:26:34;22.00;99.90
5278;DHT22;2662;51.194;6.614;2023-08-24T06:29:01;23.00;99.90
5278;DHT22;2662;51.194;6.614;2023-08-24T06:31:27;24.20;99.90
5278;DHT22;2662;51.194;6.614;2023-08-24T06:33:57;25.40;99.90
5278;DHT22;2662;51.194;6.614;2023-08-24T06:36:23;26.50;99.90
5278;DHT22;2662;51.194;6.614;2023-08-24T06:38:50;27.70;99.90
5278;DHT22;2662;51.194;6.614;2023-08-24T06:41:19;28.90;99.90
5278;DHT22;2662;51.194;6.614;2023-08-24T06:43:46;29.30;99.90
5278;DHT22;2662;51.194;6.614;2023-08-24T06:46:12;29.80;99.90
5278;DHT22;2662;51.194;6.614;2023-08-24T06:48:39;30.00;99.90
5278;DHT22;2662;51.194;6.614;2023-08-24T06:51:09;30.40;99.90
5278;DHT22;2662;51.194;6.614;2023-08-24T06:53:36;30.90;99.90
5278;DHT22;2662;51.194;6.614;2023-08-24T06:56:03;31.70;99.90
5278;DHT22;2662;51.194;6.614;2023-08-24T06:58:30;33.10;99.90
5278;DHT22;2662;51.194;6.614;2023-08-24T07:00:56;33.10;99.90
5278;DHT22;2662;51.194;6.614;2023-08-24T07:03:23;33.30;99.90
5278;DHT22;2662;51.194;6.614;2023-08-24T07:05:50;33.50;99.90
5278;DHT22;2662;51.194;6.614;2023-08-24T07:08:18;33.20;99.90
5278;DHT22;2662;51.194;6.614;2023-08-24T07:10:45;33.40;99.90
5278;DHT22;2662;51.194;6.614;2023-08-24T07:13:12;34.10;99.90
5278;DHT22;2662;51.194;6.614;2023-08-24T07:15:38;34.10;99.90
5278;DHT22;2662;51.194;6.614;2023-08-24T07:18:05;34.40;99.90
5278;DHT22;2662;51.194;6.614;2023-08-24T07:20:33;34.80;99.90
5278;DHT22;2662;51.194;6.614;2023-08-24T07:23:00;34.80;99.90
5278;DHT22;2662;51.194;6.614;2023-08-24T07:25:28;34.90;99.90
5278;DHT22;2662;51.194;6.614;2023-08-24T07:27:55;35.10;99.90
5278;DHT22;2662;51.194;6.614;2023-08-24T07:30:24;36.00;99.90
5278;DHT22;2662;51.194;6.614;2023-08-24T07:32:51;36.60;98.60
5278;DHT22;2662;51.194;6.614;2023-08-24T07:35:17;37.40;98.40
5278;DHT22;2662;51.194;6.614;2023-08-24T07:37:46;37.80;96.80
5278;DHT22;2662;51.194;6.614;2023-08-24T07:40:13;38.30;95.20
5278;DHT22;2662;51.194;6.614;2023-08-24T07:42:45;38.40;94.40
5278;DHT22;2662;51.194;6.614;2023-08-24T07:45:12;38.40;93.50
5278;DHT22;2662;51.194;6.614;2023-08-24T07:47:39;38.30;93.90
5278;DHT22;2662;51.194;6.614;2023-08-24T07:50:07;38.20;93.20
5278;DHT22;2662;51.194;6.614;2023-08-24T07:52:33;37.70;92.60
5278;DHT22;2662;51.194;6.614;2023-08-24T07:55:00;37.20;93.60
5278;DHT22;2662;51.194;6.614;2023-08-24T07:57:29;37.90;93.50
5278;DHT22;2662;51.194;6.614;2023-08-24T07:59:58;38.00;92.90
5278;DHT22;2662;51.194;6.614;2023-08-24T08:02:25;37.70;92.70
5278;DHT22;2662;51.194;6.614;2023-08-24T08:04:55;38.30;92.50
5278;DHT22;2662;51.194;6.614;2023-08-24T08:07:23;38.50;91.80
5278;DHT22;2662;51.194;6.614;2023-08-24T08:09:50;38.20;90.30
5278;DHT22;2662;51.194;6.614;2023-08-24T08:12:16;37.20;90.70
5278;DHT22;2662;51.194;6.614;2023-08-24T08:14:43;36.90;91.30
5278;DHT22;2662;51.194;6.614;2023-08-24T08:17:11;36.70;91.90
5278;DHT22;2662;51.194;6.614;2023-08-24T08:19:38;36.50;92.40
5278;DHT22;2662;51.194;6.614;2023-08-24T08:22:05;36.60;91.80
5278;DHT22;2662;51.194;6.614;2023-08-24T08:24:31;36.70;92.40
5278;DHT22;2662;51.194;6.614;2023-08-24T08:26:58;37.20;92.30
5278;DHT22;2662;51.194;6.614;2023-08-24T08:29:25;37.50;91.30
5278;DHT22;2662;51.194;6.614;2023-08-24T08:31:52;37.60;91.80
5278;DHT22;2662;51.194;6.614;2023-08-24T08:34:20;37.60;91.10
5278;DHT22;2662;51.194;6.614;2023-08-24T08:36:46;37.60;91.90
5278;DHT22;2662;51.194;6.614;2023-08-24T08:39:13;37.30;90.40
5278;DHT22;2662;51.194;6.614;2023-08-24T08:41:42;36.30;91.70
5278;DHT22;2662;51.194;6.614;2023-08-24T08:44:13;36.20;92.30
5278;DHT22;2662;51.194;6.614;2023-08-24T08:46:42;35.90;92.60
5278;DHT22;2662;51.194;6.614;2023-08-24T08:49:09;35.40;93.40
5278;DHT22;2662;51.194;6.614;2023-08-24T08:51:41;35.10;94.20
5278;DHT22;2662;51.194;6.614;2023-08-24T08:54:07;35.20;94.40
5278;DHT22;2662;51.194;6.614;2023-08-24T08:56:35;35.30;93.70
5278;DHT22;2662;51.194;6.614;2023-08-24T08:59:02;35.30;93.60
5278;DHT22;2662;51.194;6.614;2023-08-24T09:01:31;34.90;93.80
5278;DHT22;2662;51.194;6.614;2023-08-24T09:03:58;34.80;94.80
5278;DHT22;2662;51.194;6.614;2023-08-24T09:06:25;34.80;95.20
5278;DHT22;2662;51.194;6.614;2023-08-24T09:08:53;34.30;95.00
5278;DHT22;2662;51.194;6.614;2023-08-24T09:11:20;34.00;95.60
5278;DHT22;2662;51.194;6.614;2023-08-24T09:13:48;33.80;96.20
5278;DHT22;2662;51.194;6.614;2023-08-24T09:16:14;33.80;95.40
5278;DHT22;2662;51.194;6.614;2023-08-24T09:18:44;33.50;95.60
5278;DHT22;2662;51.194;6.614;2023-08-24T09:21:12;33.30;95.90
5278;DHT22;2662;51.194;6.614;2023-08-24T09:23:43;33.30;97.20
5278;DHT22;2662;51.194;6.614;2023-08-24T09:26:12;33.20;97.40
5278;DHT22;2662;51.194;6.614;2023-08-24T09:28:42;33.20;98.00
5278;DHT22;2662;51.194;6.614;2023-08-24T09:31:11;33.10;97.80
5278;DHT22;2662;51.194;6.614;2023-08-24T09:33:37;32.80;97.40
5278;DHT22;2662;51.194;6.614;2023-08-24T09:36:06;32.50;97.30
5278;DHT22;2662;51.194;6.614;2023-08-24T09:38:33;32.40;98.20
5278;DHT22;2662;51.194;6.614;2023-08-24T09:41:02;32.50;98.50
5278;DHT22;2662;51.194;6.614;2023-08-24T09:43:31;32.40;99.00
5278;DHT22;2662;51.194;6.614;2023-08-24T09:45:58;32.40;98.10
5278;DHT22;2662;51.194;6.614;2023-08-24T09:48:25;32.90;98.40
5278;DHT22;2662;51.194;6.614;2023-08-24T09:50:52;33.30;97.70
5278;DHT22;2662;51.194;6.614;2023-08-24T09:53:20;33.60;97.90
5278;DHT22;2662;51.194;6.614;2023-08-24T09:55:53;34.20;97.80
5278;DHT22;2662;51.194;6.614;2023-08-24T09:58:22;34.40;96.30
5278;DHT22;2662;51.194;6.614;2023-08-24T10:00:50;34.20;95.80
5278;DHT22;2662;51.194;6.614;2023-08-24T10:03:18;34.50;96.60
5278;DHT22;2662;51.194;6.614;2023-08-24T10:05:50;34.60;95.70
5278;DHT22;2662;51.194;6.614;2023-08-24T10:08:20;34.20;94.20
5278;DHT22;2662;51.194;6.614;2023-08-24T10:10:48;34.10;95.30
5278;DHT22;2662;51.194;6.614;2023-08-24T10:13:20;33.90;95.80
5278;DHT22;2662;51.194;6.614;2023-08-24T10:15:52;33.60;96.10
5278;DHT22;2662;51.194;6.614;2023-08-24T10:18:20;33.60;96.60
5278;DHT22;2662;51.194;6.614;2023-08-24T10:20:49;33.50;96.60
5278;DHT22;2662;51.194;6.614;2023-08-24T10:23:16;33.30;96.30
5278;DHT22;2662;51.194;6.614;2023-08-24T10:25:46;33.40;97.60
5278;DHT22;2662;51.194;6.614;2023-08-24T10:31:48;33.40;96.80
5278;DHT22;2662;51.194;6.614;2023-08-24T10:34:16;33.30;96.50
5278;DHT22;2662;51.194;6.614;2023-08-24T10:36:42;32.90;96.30
5278;DHT22;2662;51.194;6.614;2023-08-24T10:39:09;32.60;95.80
5278;DHT22;2662;51.194;6.614;2023-08-24T10:41:49;32.50;96.70
5278;DHT22;2662;51.194;6.614;2023-08-24T10:44:24;32.40;97.10
5278;DHT22;2662;51.194;6.614;2023-08-24T10:47:11;32.50;97.20
5278;DHT22;2662;51.194;6.614;2023-08-24T10:49:39;32.10;97.40
5278;DHT22;2662;51.194;6.614;2023-08-24T10:52:16;32.00;98.30
5278;DHT22;2662;51.194;6.614;2023-08-24T10:54:44;32.10;98.60
5278;DHT22;2662;51.194;6.614;2023-08-24T10:57:18;32.10;98.30
5278;DHT22;2662;51.194;6.614;2023-08-24T10:59:45;32.00;98.40
5278;DHT22;2662;51.194;6.614;2023-08-24T11:02:19;32.00;98.50
5278;DHT22;2662;51.194;6.614;2023-08-24T11:05:14;31.80;97.50
5278;DHT22;2662;51.194;6.614;2023-08-24T11:07:48;31.80;98.70
5278;DHT22;2662;51.194;6.614;2023-08-24T11:10:16;31.80;98.00
5278;DHT22;2662;51.194;6.614;2023-08-24T11:13:05;31.90;98.60
5278;DHT22;2662;51.194;6.614;2023-08-24T11:15:33;31.80;98.70
5278;DHT22;2662;51.194;6.614;2023-08-24T11:18:22;31.90;98.60
5278;DHT22;2662;51.194;6.614;2023-08-24T11:20:52;31.70;99.10
5278;DHT22;2662;51.194;6.614;2023-08-24T11:23:20;31.50;98.80
5278;DHT22;2662;51.194;6.614;2023-08-24T11:25:48;31.50;99.60
5278;DHT22;2662;51.194;6.614;2023-08-24T11:28:18;31.50;99.90
5278;DHT22;2662;51.194;6.614;2023-08-24T11:30:46;31.50;99.90
5278;DHT22;2662;51.194;6.614;2023-08-24T11:33:14;31.60;99.90
5278;DHT22;2662;51.194;6.614;2023-08-24T11:35:43;31.60;99.90
5278;DHT22;2662;51.194;6.614;2023-08-24T11:38:11;31.50;99.90
5278;DHT22;2662;51.194;6.614;2023-08-24T11:40:38;31.50;99.90
5278;DHT22;2662;51.194;6.614;2023-08-24T11:43:05;31.50;99.90
5278;DHT22;2662;51.194;6.614;2023-08-24T11:45:33;31.70;99.90
5278;DHT22;2662;51.194;6.614;2023-08-24T11:48:03;31.90;99.90
5278;DHT22;2662;51.194;6.614;2023-08-24T11:50:33;32.00;99.90
5278;DHT22;2662;51.194;6.614;2023-08-24T11:53:00;32.10;99.90
5278;DHT22;2662;51.194;6.614;2023-08-24T11:55:28;32.20;99.90
5278;DHT22;2662;51.194;6.614;2023-08-24T11:57:54;32.20;99.90
5278;DHT22;2662;51.194;6.614;2023-08-24T12:00:22;32.10;99.90
5278;DHT22;2662;51.194;6.614;2023-08-24T12:02:49;32.10;99.90
5278;DHT22;2662;51.194;6.614;2023-08-24T12:05:24;32.00;99.90
5278;DHT22;2662;51.194;6.614;2023-08-24T12:07:55;31.30;99.90
5278;DHT22;2662;51.194;6.614;2023-08-24T12:10:22;30.70;99.90
5278;DHT22;2662;51.194;6.614;2023-08-24T12:12:48;30.20;99.90
5278;DHT22;2662;51.194;6.614;2023-08-24T12:15:17;29.70;99.90
5278;DHT22;2662;51.194;6.614;2023-08-24T12:17:46;29.20;99.90
5278;DHT22;2662;51.194;6.614;2023-08-24T12:20:20;29.00;99.90
5278;DHT22;2662;51.194;6.614;2023-08-24T12:22:52;28.70;99.90
5278;DHT22;2662;51.194;6.614;2023-08-24T12:25:22;28.40;99.90
5278;DHT22;2662;51.194;6.614;2023-08-24T12:27:50;28.30;99.90
5278;DHT22;2662;51.194;6.614;2023-08-24T12:30:17;28.10;99.90
5278;DHT22;2662;51.194;6.614;2023-08-24T12:32:44;28.10;99.90
5278;DHT22;2662;51.194;6.614;2023-08-24T12:35:13;28.10;99.90
5278;DHT22;2662;51.194;6.614;2023-08-24T12:37:40;28.20;99.90
5278;DHT22;2662;51.194;6.614;2023-08-24T12:40:07;28.30;99.90
5278;DHT22;2662;51.194;6.614;2023-08-24T12:42:36;28.50;99.90
5278;DHT22;2662;51.194;6.614;2023-08-24T12:45:04;28.60;99.90
5278;DHT22;2662;51.194;6.614;2023-08-24T12:47:30;28.60;99.90
5278;DHT22;2662;51.194;6.614;2023-08-24T12:50:00;28.70;99.90
5278;DHT22;2662;51.194;6.614;2023-08-24T12:52:27;28.80;99.90
5278;DHT22;2662;51.194;6.614;2023-08-24T12:54:54;28.70;99.90
5278;DHT22;2662;51.194;6.614;2023-08-24T12:57:20;28.80;99.90
5278;DHT22;2662;51.194;6.614;2023-08-24T12:59:49;28.90;99.90
5278;DHT22;2662;51.194;6.614;2023-08-24T13:02:17;29.00;99.90
5278;DHT22;2662;51.194;6.614;2023-08-24T13:04:43;29.00;99.90
5278;DHT22;2662;51.194;6.614;2023-08-24T13:07:10;29.00;99.90
5278;DHT22;2662;51.194;6.614;2023-08-24T13:09:40;29.00;99.90
5278;DHT22;2662;51.194;6.614;2023-08-24T13:12:08;28.90;99.90
5278;DHT22;2662;51.194;6.614;2023-08-24T13:14:35;28.70;99.90
5278;DHT22;2662;51.194;6.614;2023-08-24T13:17:03;28.70;99.90
5278;DHT22;2662;51.194;6.614;2023-08-24T13:19:30;28.60;99.90
5278;DHT22;2662;51.194;6.614;2023-08-24T13:21:56;28.50;99.90
5278;DHT22;2662;51.194;6.614;2023-08-24T13:24:23;28.40;99.90
5278;DHT22;2662;51.194;6.614;2023-08-24T13:26:50;28.30;99.90
5278;DHT22;2662;51.194;6.614;2023-08-24T13:29:16;28.30;99.90
5278;DHT22;2662;51.194;6.614;2023-08-24T13:31:43;28.30;99.90
5278;DHT22;2662;51.194;6.614;2023-08-24T13:34:11;28.30;99.90
5278;DHT22;2662;51.194;6.614;2023-08-24T13:36:38;28.30;99.90
5278;DHT22;2662;51.194;6.614;2023-08-24T13:39:04;28.10;99.90
5278;DHT22;2662;51.194;6.614;2023-08-24T13:41:31;28.00;99.90
5278;DHT22;2662;51.194;6.614;2023-08-24T13:43:58;28.00;99.90
5278;DHT22;2662;51.194;6.614;2023-08-24T13:46:25;28.00;99.90
5278;DHT22;2662;51.194;6.614;2023-08-24T13:48:51;28.10;99.90
5278;DHT22;2662;51.194;6.614;2023-08-24T13:51:19;28.30;99.90
5278;DHT22;2662;51.194;6.614;2023-08-24T13:53:47;28.40;99.90
5278;DHT22;2662;51.194;6.614;2023-08-24T13:56:14;28.60;99.90
5278;DHT22;2662;51.194;6.614;2023-08-24T13:58:41;28.60;99.90
5278;DHT22;2662;51.194;6.614;2023-08-24T14:01:07;28.60;99.90
5278;DHT22;2662;51.194;6.614;2023-08-24T14:03:36;28.50;99.90
5278;DHT22;2662;51.194;6.614;2023-08-24T14:06:03;28.40;99.90
5278;DHT22;2662;51.194;6.614;2023-08-24T14:08:31;28.40;99.90
5278;DHT22;2662;51.194;6.614;2023-08-24T14:10:58;28.20;99.90
5278;DHT22;2662;51.194;6.614;2023-08-24T14:13:24;27.90;99.90
5278;DHT22;2662;51.194;6.614;2023-08-24T14:15:51;27.90;99.90
5278;DHT22;2662;51.194;6.614;2023-08-24T14:18:18;27.80;99.90
5278;DHT22;2662;51.194;6.614;2023-08-24T14:20:45;27.80;99.90
5278;DHT22;2662;51.194;6.614;2023-08-24T14:23:12;27.70;99.90
5278;DHT22;2662;51.194;6.614;2023-08-24T14:25:40;27.70;99.90
5278;DHT22;2662;51.194;6.614;2023-08-24T14:28:06;27.70;99.90
5278;DHT22;2662;51.194;6.614;2023-08-24T14:30:33;27.50;99.90
5278;DHT22;2662;51.194;6.614;2023-08-24T14:33:00;27.50;99.90
5278;DHT22;2662;51.194;6.614;2023-08-24T14:35:27;27.40;99.90
5278;DHT22;2662;51.194;6.614;2023-08-24T14:37:53;27.30;99.90
5278;DHT22;2662;51.194;6.614;2023-08-24T14:40:20;27.10;99.90
5278;DHT22;2662;51.194;6.614;2023-08-24T14:42:48;27.00;99.90
5278;DHT22;2662;51.194;6.614;2023-08-24T14:45:16;26.80;99.90
5278;DHT22;2662;51.194;6.614;2023-08-24T14:47:44;26.60;99.90
5278;DHT22;2662;51.194;6.614;2023-08-24T14:50:11;26.40;99.90
5278;DHT22;2662;51.194;6.614;2023-08-24T14:52:38;26.20;99.90
5278;DHT22;2662;51.194;6.614;2023-08-24T14:55:06;26.10;99.90
5278;DHT22;2662;51.194;6.614;2023-08-24T14:57:34;25.90;99.90
5278;DHT22;2662;51.194;6.614;2023-08-24T15:00:03;25.90;99.90
5278;DHT22;2662;51.194;6.614;2023-08-24T15:02:30;25.70;99.90
5278;DHT22;2662;51.194;6.614;2023-08-24T15:04:58;25.60;99.90
5278;DHT22;2662;51.194;6.614;2023-08-24T15:07:25;25.50;99.90
5278;DHT22;2662;51.194;6.614;2023-08-24T15:09:52;25.30;99.90
5278;DHT22;2662;51.194;6.614;2023-08-24T15:12:20;25.30;99.90
5278;DHT22;2662;51.194;6.614;2023-08-24T15:14:56;25.10;99.90
5278;DHT22;2662;51.194;6.614;2023-08-24T15:17:25;25.00;99.90
5278;DHT22;2662;51.194;6.614;2023-08-24T15:19:52;24.80;99.90
5278;DHT22;2662;51.194;6.614;2023-08-24T15:22:18;24.60;99.90
5278;DHT22;2662;51.194;6.614;2023-08-24T15:24:45;24.50;99.90
5278;DHT22;2662;51.194;6.614;2023-08-24T15:27:12;24.40;99.90
5278;DHT22;2662;51.194;6.614;2023-08-24T15:29:39;24.40;99.90
5278;DHT22;2662;51.194;6.614;2023-08-24T15:32:05;24.30;99.90
5278;DHT22;2662;51.194;6.614;2023-08-24T15:35:03;24.30;99.90
5278;DHT22;2662;51.194;6.614;2023-08-24T15:37:30;24.30;99.90
5278;DHT22;2662;51.194;6.614;2023-08-24T15:39:57;24.20;99.90
5278;DHT22;2662;51.194;6.614;2023-08-24T15:42:24;24.10;99.90
5278;DHT22;2662;51.194;6.614;2023-08-24T15:44:51;24.00;99.90
5278;DHT22;2662;51.194;6.614;2023-08-24T15:47:17;24.00;99.90
5278;DHT22;2662;51.194;6.614;2023-08-24T15:49:44;23.90;99.90
5278;DHT22;2662;51.194;6.614;2023-08-24T15:52:12;23.80;99.90
5278;DHT22;2662;51.194;6.614;2023-08-24T15:54:40;23.70;99.90
5278;DHT22;2662;51.194;6.614;2023-08-24T15:57:06;23.70;99.90
5278;DHT22;2662;51.194;6.614;2023-08-24T15:59:33;23.60;99.90
5278;DHT22;2662;51.194;6.614;2023-08-24T16:02:00;23.50;99.90
5278;DHT22;2662;51.194;6.614;2023-08-24T16:04:27;23.50;99.90
5278;DHT22;2662;51.194;6.614;2023-08-24T16:06:54;23.50;99.90
5278;DHT22;2662;51.194;6.614;2023-08-24T16:09:22;23.50;99.90
5278;DHT22;2662;51.194;6.614;2023-08-24T16:11:49;23.50;99.90